Time;durP1;ratioP1;P1;durP2;ratioP2;P2;SDS_P1;SDS_P2;PMS_P1;PMS_P2;Temp;Humidity;BMP_temperature;BMP_pressure;BME280_temperature;BME280_humidity;BME280_pressure;Samples;Min_cycle;Max_cycle;Signal;HPM_P1;HPM_P2
2023/01/16 00:01:57;;;;;;;1.73;1.63;;;-1.20;99.90;;;;;;4988055;28;20050;-36
2023/01/16 00:04:25;;;;;;;3.20;1.65;;;-1.20;99.90;;;;;;4986399;28;20054;-36
2023/01/16 00:06:53;;;;;;;1.67;1.58;;;-1.20;99.90;;;;;;4988341;28;20054;-36
2023/01/16 00:09:21;;;;;;;1.98;1.88;;;-1.10;99.90;;;;;;4985676;28;20053;-35
2023/01/16 00:11:49;;;;;;;1.45;1.40;;;-1.10;99.90;;;;;;4987401;28;20058;-36
2023/01/16 00:14:17;;;;;;;1.63;1.52;;;-1.10;99.90;;;;;;4992566;28;20050;-36
2023/01/16 00:16:44;;;;;;;1.15;1.15;;;-1.10;99.90;;;;;;4991238;28;20126;-35
2023/01/16 00:19:12;;;;;;;1.80;1.70;;;-1.00;99.90;;;;;;4988637;28;20057;-36
2023/01/16 00:21:40;;;;;;;4.65;1.80;;;-1.00;99.90;;;;;;4981044;28;20047;-36
2023/01/16 00:24:08;;;;;;;1.67;1.58;;;-1.00;99.90;;;;;;4985935;28;20046;-36
2023/01/16 00:26:35;;;;;;;2.55;2.17;;;-0.90;99.90;;;;;;4988600;28;20379;-36
2023/01/16 00:29:04;;;;;;;1.73;1.63;;;-1.00;99.90;;;;;;4987546;28;20438;-36
2023/01/16 00:31:31;;;;;;;1.88;1.77;;;-1.00;99.90;;;;;;4978267;28;20173;-36
2023/01/16 00:33:59;;;;;;;1.55;1.55;;;-1.10;99.90;;;;;;4986936;28;20050;-36
2023/01/16 00:36:26;;;;;;;2.95;2.00;;;-1.20;99.90;;;;;;4987234;28;20069;-36
2023/01/16 00:38:56;;;;;;;1.52;1.42;;;-1.20;99.90;;;;;;4986238;28;20090;-36
2023/01/16 00:41:23;;;;;;;1.73;1.63;;;-1.20;99.90;;;;;;4986680;28;20061;-36
2023/01/16 00:43:51;;;;;;;6.63;2.03;;;-1.10;99.90;;;;;;4987172;28;20061;-35
2023/01/16 00:46:19;;;;;;;3.90;2.03;;;-1.00;99.90;;;;;;4987250;28;20359;-36
2023/01/16 00:48:47;;;;;;;1.80;1.70;;;-1.00;99.90;;;;;;4952819;28;20038;-36
2023/01/16 00:51:14;;;;;;;2.22;1.55;;;-1.00;99.90;;;;;;4986685;28;20061;-36
2023/01/16 00:53:42;;;;;;;1.90;1.80;;;-1.10;99.90;;;;;;4985704;28;20054;-36
2023/01/16 00:56:09;;;;;;;3.28;2.97;;;-1.10;99.90;;;;;;4986252;28;20039;-36
2023/01/16 00:58:37;;;;;;;1.58;1.48;;;-1.10;99.90;;;;;;4987247;28;20046;-36
2023/01/16 01:01:05;;;;;;;1.80;1.70;;;-1.20;99.90;;;;;;4986614;28;20038;-36
2023/01/16 01:03:33;;;;;;;1.83;1.70;;;-1.20;99.90;;;;;;4985474;28;20549;-36
2023/01/16 01:06:11;;;;;;;2.85;2.58;;;-1.20;99.90;;;;;;4986734;28;20577;-36
2023/01/16 01:08:38;;;;;;;1.83;1.73;;;-1.20;99.90;;;;;;4985142;28;20407;-36
2023/01/16 01:11:11;;;;;;;1.77;1.67;;;-1.30;99.90;;;;;;4986049;28;20054;-36
2023/01/16 01:13:40;;;;;;;3.33;3.00;;;-1.30;99.90;;;;;;4977898;28;20054;-36
2023/01/16 01:16:08;;;;;;;2.45;1.10;;;-1.30;99.90;;;;;;4985389;28;20058;-36
2023/01/16 01:18:36;;;;;;;1.50;1.40;;;-1.50;99.90;;;;;;4986127;28;20054;-36
2023/01/16 01:21:05;;;;;;;2.38;2.15;;;-1.50;99.90;;;;;;4985383;28;20045;-36
2023/01/16 01:23:33;;;;;;;2.50;2.33;;;-1.60;99.90;;;;;;4986424;28;20054;-36
2023/01/16 01:26:13;;;;;;;1.70;1.60;;;-1.60;99.90;;;;;;4988236;28;20046;-36
2023/01/16 01:28:40;;;;;;;1.67;1.58;;;-1.60;99.90;;;;;;4981141;28;20503;-37
2023/01/16 01:31:12;;;;;;;2.10;2.00;;;-1.50;99.90;;;;;;4988588;28;20053;-36
2023/01/16 01:33:40;;;;;;;1.40;1.40;;;-1.40;99.90;;;;;;4989686;28;20046;-36
2023/01/16 01:36:08;;;;;;;1.90;1.73;;;-1.40;99.90;;;;;;4988386;28;20046;-36
2023/01/16 01:38:36;;;;;;;1.48;1.48;;;-1.40;99.90;;;;;;4989121;28;20061;-36
2023/01/16 01:41:03;;;;;;;1.77;1.65;;;-1.30;99.90;;;;;;4988008;28;20050;-36
2023/01/16 01:43:54;;;;;;;1.45;1.35;;;-1.30;99.90;;;;;;4989126;28;20050;-36
2023/01/16 01:46:31;;;;;;;2.77;1.97;;;-1.30;99.90;;;;;;4961311;28;20062;-36
2023/01/16 01:49:07;;;;;;;1.98;1.60;;;-1.30;99.90;;;;;;4986472;28;20054;-36
2023/01/16 01:51:40;;;;;;;1.90;1.80;;;-1.30;99.90;;;;;;4985847;28;20053;-36
2023/01/16 01:54:11;;;;;;;2.17;1.98;;;-1.30;99.90;;;;;;4979137;28;20374;-35
2023/01/16 01:56:51;;;;;;;1.52;1.42;;;-1.30;99.90;;;;;;4985450;28;20054;-35
2023/01/16 01:59:25;;;;;;;1.58;1.52;;;-1.30;99.90;;;;;;4986225;28;20050;-36
2023/01/16 02:01:54;;;;;;;2.15;1.80;;;-1.30;99.90;;;;;;4984924;28;20046;-36
2023/01/16 02:04:28;;;;;;;2.60;2.40;;;-1.20;99.90;;;;;;4985011;28;20066;-36
2023/01/16 02:07:01;;;;;;;2.30;2.10;;;-1.20;99.90;;;;;;4968722;28;20062;-36
2023/01/16 02:09:28;;;;;;;1.83;1.73;;;-1.10;99.90;;;;;;4983091;28;20237;-35
2023/01/16 02:12:00;;;;;;;1.48;1.38;;;-1.10;99.90;;;;;;4985947;28;20046;-36
2023/01/16 02:14:30;;;;;;;2.90;2.22;;;-1.30;99.90;;;;;;4985616;28;20055;-36
2023/01/16 02:20:17;;;;;;;1.88;1.85;;;-1.60;99.90;;;;;;4985065;28;20050;-36
2023/01/16 02:23:32;;;;;;;1.77;1.67;;;-1.70;99.90;;;;;;4979091;28;20433;-36
2023/01/16 02:26:28;;;;;;;2.83;2.65;;;-1.70;99.90;;;;;;4981359;28;20054;-36
2023/01/16 02:29:31;;;;;;;2.05;1.83;;;-1.70;99.90;;;;;;4984662;28;20046;-36
2023/01/16 02:32:19;;;;;;;1.92;1.83;;;-1.70;99.90;;;;;;4966008;28;20049;-36
2023/01/16 02:35:16;;;;;;;1.70;1.60;;;-1.80;99.90;;;;;;4985439;28;20042;-36
2023/01/16 02:38:10;;;;;;;4.30;2.22;;;-1.80;99.90;;;;;;4957548;28;20264;-36
2023/01/16 02:40:45;;;;;;;1.63;1.52;;;-1.70;99.90;;;;;;4984249;28;20054;-36
2023/01/16 02:43:46;;;;;;;2.13;1.98;;;-1.70;99.90;;;;;;4985159;28;20061;-36
2023/01/16 02:46:38;;;;;;;1.63;1.63;;;-1.60;99.90;;;;;;4918369;28;20259;-36
2023/01/16 02:49:19;;;;;;;1.90;1.80;;;-1.50;99.90;;;;;;4978304;28;20541;-36
2023/01/16 02:52:17;;;;;;;2.22;2.00;;;-1.50;99.90;;;;;;4984851;28;20061;-36
2023/01/16 02:54:58;;;;;;;2.20;1.77;;;-1.60;99.90;;;;;;4984833;28;20046;-36
2023/01/16 02:57:33;;;;;;;1.50;1.50;;;-1.60;99.90;;;;;;4985387;28;20057;-36
2023/01/16 03:00:03;;;;;;;1.80;1.70;;;-1.60;99.90;;;;;;4985106;28;20153;-36
2023/01/16 03:02:31;;;;;;;1.75;1.65;;;-1.80;99.90;;;;;;4986139;28;20062;-36
2023/01/16 03:04:58;;;;;;;1.50;1.50;;;-1.90;99.90;;;;;;4984826;28;20054;-36
2023/01/16 03:07:44;;;;;;;2.00;1.90;;;-1.80;99.90;;;;;;4984403;28;20061;-36
2023/01/16 03:10:15;;;;;;;2.20;2.10;;;-1.70;99.90;;;;;;4957138;28;20039;-37
2023/01/16 03:12:58;;;;;;;6.93;1.73;;;-1.70;99.90;;;;;;4977596;28;20077;-36
2023/01/16 03:15:40;;;;;;;1.73;1.63;;;-1.60;99.90;;;;;;4983480;28;20061;-36
2023/01/16 03:18:32;;;;;;;1.40;1.40;;;-1.70;99.90;;;;;;4967159;28;20533;-36
2023/01/16 03:21:10;;;;;;;2.40;2.15;;;-1.80;99.90;;;;;;4981019;28;20426;-36
2023/01/16 03:24:03;;;;;;;1.58;1.50;;;-1.80;99.90;;;;;;4983804;28;20503;-36
2023/01/16 03:26:47;;;;;;;3.53;1.60;;;-1.90;99.90;;;;;;4975922;28;20611;-36
2023/01/16 03:29:26;;;;;;;1.83;1.77;;;-1.70;99.90;;;;;;4983830;28;20062;-37
2023/01/16 03:32:15;;;;;;;1.65;1.55;;;-1.80;99.90;;;;;;4981470;28;20419;-37
2023/01/16 03:34:55;;;;;;;1.73;1.63;;;-2.00;99.90;;;;;;4982035;28;20050;-37
2023/01/16 03:37:40;;;;;;;2.65;2.03;;;-2.00;99.90;;;;;;4961408;28;20065;-39
2023/01/16 03:40:11;;;;;;;2.28;2.10;;;-2.00;99.90;;;;;;4984382;28;20062;-37
2023/01/16 03:42:47;;;;;;;4.65;1.90;;;-1.90;99.90;;;;;;4986112;28;20455;-37
2023/01/16 03:45:39;;;;;;;2.10;2.00;;;-1.90;99.90;;;;;;4985584;28;20057;-37
2023/01/16 03:48:16;;;;;;;2.03;1.77;;;-2.10;99.90;;;;;;4932816;28;20046;-37
2023/01/16 03:50:48;;;;;;;3.08;2.40;;;-2.30;99.90;;;;;;4968535;28;20416;-37
2023/01/16 03:53:21;;;;;;;2.80;2.60;;;-2.30;99.90;;;;;;4985112;28;20214;-37
2023/01/16 03:55:54;;;;;;;2.10;2.00;;;-2.10;99.90;;;;;;4985388;28;20393;-36
2023/01/16 03:58:32;;;;;;;2.50;2.30;;;-2.10;99.90;;;;;;4986342;28;20050;-37
2023/01/16 04:01:09;;;;;;;2.60;2.05;;;-2.10;99.90;;;;;;4986375;28;20061;-37
2023/01/16 04:04:14;;;;;;;3.80;2.28;;;-2.10;99.90;;;;;;4984450;28;20055;-37
2023/01/16 04:06:55;;;;;;;1.95;1.67;;;-2.10;99.90;;;;;;4976874;28;20042;-37
2023/01/16 04:09:35;;;;;;;2.30;2.20;;;-2.10;99.90;;;;;;4984144;28;20061;-37
2023/01/16 04:12:05;;;;;;;3.30;3.10;;;-2.10;99.90;;;;;;4985114;28;20070;-37
2023/01/16 04:14:35;;;;;;;1.48;1.48;;;-2.10;99.90;;;;;;4976907;28;20050;-36
2023/01/16 04:17:04;;;;;;;2.17;1.52;;;-2.20;99.90;;;;;;4984926;28;20076;-37
2023/01/16 04:19:33;;;;;;;1.85;1.75;;;-2.10;99.90;;;;;;4984837;28;20077;-37
2023/01/16 04:22:05;;;;;;;2.45;2.35;;;-2.00;99.90;;;;;;4984495;28;20046;-37
2023/01/16 04:24:35;;;;;;;2.70;2.08;;;-2.00;99.90;;;;;;4984205;28;20042;-37
2023/01/16 04:27:02;;;;;;;2.25;2.15;;;-1.90;99.90;;;;;;4985554;28;20059;-38
2023/01/16 04:29:30;;;;;;;1.92;1.83;;;-2.00;99.90;;;;;;4984773;28;20050;-37
2023/01/16 04:31:58;;;;;;;2.13;2.03;;;-2.00;99.90;;;;;;4976370;28;20053;-37
2023/01/16 04:34:25;;;;;;;3.67;3.47;;;-2.00;99.90;;;;;;4968179;28;20054;-37
2023/01/16 04:36:53;;;;;;;1.95;1.85;;;-2.10;99.90;;;;;;4985309;28;20293;-37
2023/01/16 04:39:20;;;;;;;3.00;2.80;;;-2.10;99.90;;;;;;4984029;28;20054;-37
2023/01/16 04:41:50;;;;;;;2.30;2.10;;;-1.90;99.90;;;;;;4984419;28;20050;-38
2023/01/16 04:44:18;;;;;;;2.38;1.73;;;-2.10;99.90;;;;;;4967131;28;20454;-38
2023/01/16 04:46:45;;;;;;;2.53;2.33;;;-2.30;99.90;;;;;;4967379;28;20081;-39
2023/01/16 04:49:13;;;;;;;1.98;1.88;;;-2.50;99.90;;;;;;4966671;28;20058;-37
2023/01/16 04:51:41;;;;;;;2.60;2.47;;;-2.40;99.90;;;;;;4984423;28;20058;-37
2023/01/16 04:54:14;;;;;;;2.10;2.00;;;-2.40;99.90;;;;;;4983947;28;20046;-37
2023/01/16 04:56:42;;;;;;;2.67;2.47;;;-2.40;99.90;;;;;;4984806;28;20042;-36
2023/01/16 04:59:12;;;;;;;2.00;1.80;;;-2.50;99.90;;;;;;4987300;28;20058;-37
2023/01/16 05:01:40;;;;;;;1.27;1.27;;;-2.40;99.90;;;;;;4970773;28;20046;-36
2023/01/16 05:04:09;;;;;;;2.03;1.92;;;-2.30;99.90;;;;;;4987901;28;20039;-37
2023/01/16 05:06:37;;;;;;;2.33;1.98;;;-2.00;99.90;;;;;;4988422;28;20047;-37
2023/01/16 05:09:05;;;;;;;2.65;1.55;;;-1.90;99.90;;;;;;4986429;28;20057;-36
2023/01/16 05:11:34;;;;;;;1.83;1.73;;;-1.90;99.90;;;;;;4987890;28;20054;-37
2023/01/16 05:14:07;;;;;;;2.17;2.08;;;-2.00;99.90;;;;;;4982879;28;20439;-37
2023/01/16 05:16:36;;;;;;;3.45;2.67;;;-2.40;99.90;;;;;;4986976;28;20053;-36
2023/01/16 05:19:04;;;;;;;1.95;1.85;;;-2.50;99.90;;;;;;4987748;28;20058;-37
2023/01/16 05:21:32;;;;;;;2.45;2.25;;;-2.70;99.90;;;;;;4987561;28;20039;-37
2023/01/16 05:23:59;;;;;;;2.42;2.30;;;-2.80;99.90;;;;;;4986255;28;20090;-36
2023/01/16 05:26:27;;;;;;;3.47;2.08;;;-2.90;99.90;;;;;;4988629;28;20057;-37
2023/01/16 05:28:55;;;;;;;2.35;2.17;;;-3.00;99.90;;;;;;4987540;28;20042;-36
2023/01/16 05:31:22;;;;;;;1.85;1.75;;;-3.00;99.90;;;;;;4987743;28;20054;-36
2023/01/16 05:33:50;;;;;;;2.40;2.28;;;-2.90;99.90;;;;;;4986961;28;20057;-36
2023/01/16 05:36:17;;;;;;;3.53;2.28;;;-3.00;99.90;;;;;;4987207;28;20050;-36
2023/01/16 05:38:46;;;;;;;2.78;2.58;;;-2.90;99.90;;;;;;4969534;28;20066;-40
2023/01/16 05:41:13;;;;;;;2.25;2.15;;;-2.80;99.90;;;;;;4986005;28;20046;-36
2023/01/16 05:43:41;;;;;;;2.47;2.10;;;-2.80;99.90;;;;;;4987508;28;20557;-38
2023/01/16 05:46:08;;;;;;;1.98;1.88;;;-3.00;99.90;;;;;;4980681;28;20046;-36
2023/01/16 05:48:37;;;;;;;2.05;1.95;;;-3.00;99.90;;;;;;4969236;28;20053;-37
2023/01/16 05:51:05;;;;;;;2.78;2.58;;;-3.10;99.90;;;;;;4969149;28;20065;-36
2023/01/16 05:53:32;;;;;;;3.10;2.90;;;-3.10;99.90;;;;;;4985854;28;20053;-36
2023/01/16 05:56:09;;;;;;;2.10;2.00;;;-2.90;99.90;;;;;;4982672;28;20057;-37
2023/01/16 05:58:37;;;;;;;2.35;2.25;;;-2.70;99.90;;;;;;4982642;28;20042;-37
2023/01/16 06:01:05;;;;;;;3.40;3.17;;;-2.60;99.90;;;;;;4984342;28;20061;-37
2023/01/16 06:03:33;;;;;;;2.05;1.95;;;-2.40;99.90;;;;;;4985644;28;20550;-37
2023/01/16 06:06:01;;;;;;;2.55;2.45;;;-2.40;99.90;;;;;;4980532;28;20247;-37
2023/01/16 06:08:29;;;;;;;2.28;2.08;;;-2.40;99.90;;;;;;4981698;28;20414;-36
2023/01/16 06:10:57;;;;;;;2.42;2.20;;;-2.40;99.90;;;;;;4983310;28;20480;-37
2023/01/16 06:13:24;;;;;;;3.88;2.97;;;-2.40;99.90;;;;;;4983376;28;20062;-36
2023/01/16 06:15:52;;;;;;;2.70;2.50;;;-2.30;99.90;;;;;;4982136;28;20058;-36
2023/01/16 06:18:20;;;;;;;3.38;2.55;;;-2.30;99.90;;;;;;4986334;28;20142;-36
2023/01/16 06:20:47;;;;;;;3.38;2.33;;;-2.50;99.90;;;;;;4986386;28;20046;-37
2023/01/16 06:23:15;;;;;;;2.38;2.28;;;-2.80;99.90;;;;;;4989064;28;20062;-39
2023/01/16 06:25:42;;;;;;;3.13;2.45;;;-2.90;99.90;;;;;;4985685;28;20280;-37
2023/01/16 06:28:10;;;;;;;4.55;2.90;;;-3.00;99.90;;;;;;4986535;28;20042;-37
2023/01/16 06:30:37;;;;;;;2.15;2.05;;;-3.10;99.90;;;;;;4981327;28;20054;-38
2023/01/16 06:33:05;;;;;;;3.53;3.05;;;-3.00;99.90;;;;;;4985997;28;20065;-37
2023/01/16 06:35:33;;;;;;;2.78;2.53;;;-3.00;99.90;;;;;;4981708;28;20054;-37
2023/01/16 06:38:01;;;;;;;2.67;2.47;;;-3.10;99.90;;;;;;4987766;28;20478;-37
2023/01/16 06:40:29;;;;;;;4.35;4.15;;;-3.20;99.90;;;;;;4987579;28;20042;-37
2023/01/16 06:42:56;;;;;;;3.08;2.65;;;-3.20;99.90;;;;;;4988639;28;20054;-37
2023/01/16 06:45:24;;;;;;;2.25;2.03;;;-3.20;99.90;;;;;;4988712;28;20057;-37
2023/01/16 06:47:52;;;;;;;1.95;1.85;;;-3.20;99.90;;;;;;4987727;28;20421;-38
2023/01/16 06:50:20;;;;;;;2.38;2.28;;;-3.20;99.90;;;;;;4988200;28;20054;-37
2023/01/16 06:52:48;;;;;;;2.95;2.63;;;-3.10;99.90;;;;;;4982203;28;20450;-37
2023/01/16 06:55:16;;;;;;;2.00;1.90;;;-3.00;99.90;;;;;;4985183;28;20561;-37
2023/01/16 06:57:45;;;;;;;2.58;2.47;;;-3.00;99.90;;;;;;4982028;28;20057;-38
2023/01/16 07:00:13;;;;;;;2.90;2.70;;;-3.00;99.90;;;;;;4982877;28;20051;-37
2023/01/16 07:02:41;;;;;;;2.58;2.38;;;-3.10;99.90;;;;;;4986611;28;20051;-37
2023/01/16 07:05:09;;;;;;;3.28;3.05;;;-3.20;99.90;;;;;;4987272;28;20045;-37
2023/01/16 07:07:37;;;;;;;2.70;2.47;;;-3.20;99.90;;;;;;4979002;28;20605;-37
2023/01/16 07:10:05;;;;;;;2.60;2.40;;;-3.20;99.90;;;;;;4985691;28;20061;-37
2023/01/16 07:12:32;;;;;;;4.00;3.60;;;-3.10;99.90;;;;;;4987148;28;20057;-36
2023/01/16 07:23:24;;;;;;;2.80;2.63;;;-2.70;99.90;;;;;;4981876;28;20058;-37
2023/01/16 07:25:53;;;;;;;2.80;2.65;;;-2.50;99.90;;;;;;4978655;28;20470;-37
2023/01/16 07:28:20;;;;;;;3.17;2.88;;;-2.40;99.90;;;;;;4982387;28;20061;-37
2023/01/16 07:30:49;;;;;;;3.55;3.25;;;-2.30;99.90;;;;;;4975851;28;20073;-36
2023/01/16 07:33:17;;;;;;;4.63;2.95;;;-2.30;99.90;;;;;;4984517;28;20046;-36
2023/01/16 07:35:45;;;;;;;4.57;3.38;;;-2.40;99.90;;;;;;4984767;28;20450;-36
2023/01/16 07:38:12;;;;;;;3.13;2.92;;;-2.40;99.90;;;;;;4983500;28;20490;-36
2023/01/16 07:40:40;;;;;;;4.40;4.07;;;-2.40;99.90;;;;;;4983597;28;20042;-36
2023/01/16 07:43:08;;;;;;;2.67;2.47;;;-2.50;99.90;;;;;;4977114;28;20042;-37
2023/01/16 07:45:35;;;;;;;3.53;3.25;;;-2.60;99.90;;;;;;4983640;28;20042;-36
2023/01/16 07:48:03;;;;;;;3.08;2.78;;;-2.60;99.90;;;;;;4977382;28;20042;-36
2023/01/16 07:50:31;;;;;;;3.22;2.67;;;-2.60;99.90;;;;;;4984535;28;20050;-36
2023/01/16 07:52:58;;;;;;;5.28;3.20;;;-2.60;99.90;;;;;;4983221;28;20050;-36
2023/01/16 07:55:26;;;;;;;2.58;2.40;;;-2.40;99.90;;;;;;4979416;28;20069;-35
2023/01/16 07:57:54;;;;;;;3.30;2.63;;;-2.30;99.90;;;;;;4978748;28;20130;-35
2023/01/16 08:00:21;;;;;;;2.42;2.22;;;-2.10;99.90;;;;;;4978841;28;20042;-36
2023/01/16 08:02:49;;;;;;;2.53;2.35;;;-2.00;99.90;;;;;;4979039;28;20051;-36
2023/01/16 08:05:17;;;;;;;2.85;2.63;;;-2.00;99.90;;;;;;4979997;28;20047;-38
2023/01/16 08:07:46;;;;;;;2.65;2.55;;;-2.00;99.90;;;;;;4977980;28;20329;-36
2023/01/16 08:10:14;;;;;;;4.20;2.47;;;-2.00;99.90;;;;;;4977262;28;20042;-36
2023/01/16 08:12:41;;;;;;;4.10;2.63;;;-2.00;99.90;;;;;;4979419;28;20049;-36
2023/01/16 08:15:09;;;;;;;3.45;3.17;;;-1.80;99.90;;;;;;4983852;28;20050;-36
2023/01/16 08:17:39;;;;;;;2.72;2.53;;;-1.80;99.90;;;;;;4984759;28;20344;-37
2023/01/16 08:20:08;;;;;;;2.65;2.45;;;-1.80;99.90;;;;;;4984024;28;20058;-36
2023/01/16 08:22:45;;;;;;;2.70;2.60;;;-1.50;99.90;;;;;;4985210;28;20075;-37
2023/01/16 08:25:14;;;;;;;3.45;3.20;;;-1.30;99.90;;;;;;4980417;28;20046;-37
2023/01/16 08:27:42;;;;;;;2.40;2.30;;;-1.30;99.90;;;;;;4979013;28;20046;-37
2023/01/16 08:30:11;;;;;;;3.63;2.10;;;-1.20;99.90;;;;;;4982737;28;20047;-37
2023/01/16 08:32:38;;;;;;;3.53;3.25;;;-1.20;99.90;;;;;;4972054;28;20061;-36
2023/01/16 08:35:07;;;;;;;1.92;1.83;;;-1.10;99.90;;;;;;4988791;28;20058;-37
2023/01/16 08:37:34;;;;;;;2.22;2.13;;;-0.90;99.90;;;;;;4987716;28;20061;-36
2023/01/16 08:40:04;;;;;;;2.65;2.45;;;-0.60;99.90;;;;;;4970596;28;20042;-36
2023/01/16 08:53:36;;;;;;;1.70;1.60;;;0.20;99.90;;;;;;4987488;28;20050;-36
2023/01/16 08:56:04;;;;;;;1.77;1.67;;;0.40;99.90;;;;;;4988361;28;20049;-36
2023/01/16 08:58:31;;;;;;;1.10;1.10;;;0.50;99.90;;;;;;4981658;28;20058;-36
2023/01/16 09:00:59;;;;;;;1.30;1.27;;;0.50;99.90;;;;;;4988350;28;20047;-36
2023/01/16 09:03:29;;;;;;;1.92;1.83;;;0.50;99.90;;;;;;4988714;28;20050;-37
2023/01/16 09:05:56;;;;;;;6.28;3.20;;;0.60;99.90;;;;;;4982131;28;20038;-37
2023/01/16 09:08:24;;;;;;;2.40;2.15;;;0.70;99.90;;;;;;4985101;28;20499;-36
2023/01/16 09:13:50;;;;;;;2.10;1.73;;;0.80;99.90;;;;;;4986702;28;20042;-37
2023/01/16 09:16:20;;;;;;;1.90;1.80;;;0.90;99.90;;;;;;4981517;28;20061;-36
2023/01/16 09:18:48;;;;;;;2.42;2.28;;;1.00;99.90;;;;;;4987756;28;20054;-38
2023/01/16 09:21:18;;;;;;;1.83;1.73;;;1.10;99.90;;;;;;4986450;28;20534;-36
2023/01/16 09:23:46;;;;;;;0.98;0.98;;;1.20;99.90;;;;;;4987053;28;20055;-36
2023/01/16 09:26:14;;;;;;;1.73;1.63;;;1.30;99.90;;;;;;4981978;28;20046;-36
2023/01/16 09:28:42;;;;;;;1.58;1.48;;;1.40;99.90;;;;;;4977446;28;20069;-35
2023/01/16 09:31:09;;;;;;;1.83;1.73;;;1.50;99.90;;;;;;4981768;28;20055;-35
2023/01/16 09:33:37;;;;;;;1.75;1.65;;;1.60;99.90;;;;;;4984980;28;20054;-35
2023/01/16 09:36:05;;;;;;;1.20;1.20;;;1.70;99.90;;;;;;4985830;28;20046;-35
2023/01/16 09:38:33;;;;;;;1.70;1.60;;;1.70;99.90;;;;;;4986674;28;20043;-34
2023/01/16 09:41:01;;;;;;;2.00;1.90;;;2.00;99.90;;;;;;4986919;28;20061;-34
2023/01/16 09:43:38;;;;;;;1.63;1.52;;;3.20;99.90;;;;;;4988539;28;20050;-35
2023/01/16 09:46:17;;;;;;;1.08;1.08;;;4.40;99.90;;;;;;4980318;28;20046;-34
2023/01/16 09:48:45;;;;;;;1.40;1.30;;;4.90;99.90;;;;;;4986081;28;20046;-34
2023/01/16 09:51:20;;;;;;;3.58;3.25;;;4.50;99.90;;;;;;4986611;28;20202;-34
2023/01/16 09:59:54;;;;;;;1.80;1.70;;;3.70;99.90;;;;;;4986677;28;20050;-46
2023/01/16 10:02:26;;;;;;;1.23;1.23;;;5.10;99.90;;;;;;4986296;28;20050;-45
2023/01/16 10:04:55;;;;;;;1.10;1.10;;;5.10;99.90;;;;;;4987141;28;20517;-45
2023/01/16 10:07:23;;;;;;;1.08;1.08;;;4.50;99.90;;;;;;4990386;28;20062;-45
2023/01/16 10:09:56;;;;;;;1.33;1.33;;;4.30;99.90;;;;;;4988118;28;20046;-45
2023/01/16 10:12:35;;;;;;;1.17;1.00;;;4.00;99.90;;;;;;4989879;28;20408;-45
2023/01/16 10:15:36;;;;;;;0.90;0.90;;;3.80;99.90;;;;;;4986129;28;20062;-45
2023/01/16 10:18:12;;;;;;;1.00;1.00;;;3.70;99.90;;;;;;4989144;28;20441;-45
2023/01/16 10:21:11;;;;;;;1.30;1.25;;;3.70;99.90;;;;;;4988897;28;20043;-45
2023/01/16 10:24:02;;;;;;;1.85;1.75;;;3.70;99.90;;;;;;4983542;28;20411;-45
2023/01/16 10:26:44;;;;;;;1.30;1.30;;;3.80;99.90;;;;;;4972435;28;20542;-45
2023/01/16 10:29:15;;;;;;;1.42;1.33;;;3.90;99.90;;;;;;4984841;28;20502;-45
2023/01/16 10:31:54;;;;;;;1.17;1.10;;;3.90;99.90;;;;;;4977270;28;20414;-45
2023/01/16 10:34:29;;;;;;;0.90;0.90;;;3.70;99.90;;;;;;4985243;28;20054;-45
2023/01/16 10:36:58;;;;;;;1.00;1.00;;;3.60;99.90;;;;;;4985048;28;20218;-45
2023/01/16 10:39:32;;;;;;;5.30;1.63;;;3.60;99.90;;;;;;4984385;28;20053;-45
2023/01/16 10:50:58;;;;;;;1.60;1.42;;;3.70;99.90;;;;;;4972006;28;20058;-45
2023/01/16 10:53:26;;;;;;;2.53;1.70;;;3.90;99.90;;;;;;4977155;28;20074;-45
2023/01/16 10:55:55;;;;;;;2.15;1.40;;;3.90;99.90;;;;;;4984266;28;20294;-44
2023/01/16 10:58:39;;;;;;;1.77;1.67;;;3.70;99.90;;;;;;4985555;28;20046;-45
2023/01/16 11:01:18;;;;;;;1.50;1.40;;;3.60;99.90;;;;;;4980480;28;20102;-45
2023/01/16 11:03:48;;;;;;;1.40;1.30;;;3.50;99.90;;;;;;4977371;28;20058;-45
2023/01/16 11:06:25;;;;;;;2.13;2.03;;;3.60;99.90;;;;;;4979855;28;20059;-45
2023/01/16 11:09:15;;;;;;;1.15;1.15;;;3.70;99.90;;;;;;4983820;28;20054;-45
2023/01/16 11:20:23;;;;;;;1.17;1.17;;;4.00;99.90;;;;;;4985667;28;20065;-44
2023/01/16 11:22:58;;;;;;;1.23;1.23;;;4.00;99.90;;;;;;4987763;28;20124;-45
2023/01/16 11:25:27;;;;;;;4.45;2.67;;;4.20;99.90;;;;;;4986022;28;20061;-46
2023/01/16 11:27:58;;;;;;;1.10;1.10;;;4.40;99.90;;;;;;4987094;28;20065;-45
2023/01/16 11:30:32;;;;;;;1.60;1.52;;;4.40;99.90;;;;;;4985547;28;20055;-45
2023/01/16 11:33:06;;;;;;;1.67;1.55;;;4.60;99.90;;;;;;4986674;28;20046;-45
2023/01/16 11:35:36;;;;;;;0.85;0.85;;;4.70;99.90;;;;;;4988251;28;20053;-45
2023/01/16 11:38:05;;;;;;;2.08;1.50;;;4.90;99.90;;;;;;4987017;28;20045;-45
2023/01/16 11:40:44;;;;;;;1.23;1.23;;;4.90;99.90;;;;;;4983887;28;20046;-46
2023/01/16 11:46:27;;;;;;;1.48;1.38;;;4.90;99.90;;;;;;4984305;28;20502;-45
2023/01/16 11:49:23;;;;;;;0.90;0.90;;;5.10;99.90;;;;;;4961045;28;20065;-45
2023/01/16 11:51:57;;;;;;;1.17;1.13;;;5.00;99.90;;;;;;4984868;28;20050;-46
2023/01/16 11:54:30;;;;;;;1.40;1.30;;;4.90;99.90;;;;;;4983815;28;20065;-45
2023/01/16 11:57:19;;;;;;;2.50;1.27;;;5.00;99.90;;;;;;4977913;28;20077;-45
2023/01/16 11:59:49;;;;;;;3.35;2.40;;;5.20;99.90;;;;;;4981883;28;20077;-45
2023/01/16 12:02:41;;;;;;;1.30;1.30;;;5.20;99.90;;;;;;4985152;28;20164;-45
2023/01/16 12:08:28;;;;;;;1.58;1.42;;;5.40;99.90;;;;;;4946153;28;20055;-45
2023/01/16 12:11:13;;;;;;;1.70;1.60;;;5.50;99.90;;;;;;4950439;29;20047;-46
2023/01/16 12:14:17;;;;;;;1.67;1.67;;;5.50;99.90;;;;;;4945764;29;20419;-45
2023/01/16 12:17:07;;;;;;;1.30;1.05;;;5.50;99.90;;;;;;4945398;29;20078;-45
2023/01/16 12:19:57;;;;;;;0.95;0.95;;;5.50;99.90;;;;;;4944701;29;20059;-45
2023/01/16 12:22:47;;;;;;;1.38;1.35;;;5.60;99.90;;;;;;4942867;29;20063;-45
2023/01/16 12:25:52;;;;;;;1.08;1.00;;;5.60;99.90;;;;;;4949352;29;20054;-45
2023/01/16 12:28:42;;;;;;;1.05;1.05;;;5.50;99.90;;;;;;4942583;29;20059;-45
2023/01/16 12:31:38;;;;;;;2.15;0.82;;;5.50;99.90;;;;;;4943947;29;20051;-45
2023/01/16 12:34:19;;;;;;;1.20;1.20;;;5.60;99.90;;;;;;4935031;29;20459;-45
2023/01/16 12:37:06;;;;;;;2.60;1.23;;;5.50;99.90;;;;;;4950091;29;20047;-45
2023/01/16 12:39:44;;;;;;;1.17;1.13;;;5.30;99.90;;;;;;4944562;29;20432;-45
2023/01/16 12:45:34;;;;;;;1.20;1.10;;;5.20;99.90;;;;;;4948105;29;20052;-45
2023/01/16 12:48:07;;;;;;;2.25;1.05;;;5.30;99.90;;;;;;4943321;29;20042;-44
2023/01/16 12:51:07;;;;;;;4.78;1.35;;;5.30;99.90;;;;;;4950751;29;20055;-45
2023/01/16 12:53:53;;;;;;;13.57;5.57;;;5.30;99.90;;;;;;4917883;29;20063;-45
2023/01/16 12:56:57;;;;;;;118.05;41.55;;;5.30;99.90;;;;;;4948959;28;20063;-45
2023/01/16 12:59:34;;;;;;;1.30;1.20;;;5.30;99.90;;;;;;4952351;29;20043;-44
2023/01/16 13:02:11;;;;;;;1.55;1.45;;;5.30;99.90;;;;;;4952358;29;20063;-45
2023/01/16 13:04:46;;;;;;;1.35;1.27;;;5.40;99.90;;;;;;4969031;28;20051;-45
2023/01/16 13:07:16;;;;;;;1.20;1.10;;;5.40;99.90;;;;;;4971744;28;20526;-45
2023/01/16 13:09:47;;;;;;;1.35;1.25;;;5.30;99.90;;;;;;4970787;28;20059;-45
2023/01/16 13:15:21;;;;;;;1.50;1.38;;;5.20;99.90;;;;;;4963253;28;20317;-46
2023/01/16 13:18:01;;;;;;;1.52;1.23;;;5.20;99.90;;;;;;4966740;28;20058;-45
2023/01/16 13:20:31;;;;;;;2.88;2.67;;;5.10;99.90;;;;;;4950567;28;20074;-45
2023/01/16 13:23:05;;;;;;;1.23;1.13;;;5.20;99.90;;;;;;4964095;28;20050;-45
2023/01/16 13:25:56;;;;;;;0.98;0.98;;;5.20;99.90;;;;;;4954122;28;20058;-45
2023/01/16 13:28:37;;;;;;;1.77;1.17;;;5.10;99.90;;;;;;4959337;28;20051;-44
2023/01/16 13:31:14;;;;;;;1.80;1.33;;;5.10;99.90;;;;;;4965136;28;20054;-46
2023/01/16 13:33:45;;;;;;;1.42;1.30;;;5.00;99.90;;;;;;4962716;28;20058;-45
2023/01/16 13:36:29;;;;;;;1.80;1.23;;;5.10;99.90;;;;;;4962242;28;20049;-45
2023/01/16 13:39:34;;;;;;;1.23;1.20;;;5.10;99.90;;;;;;4965112;28;20306;-45
2023/01/16 13:42:05;;;;;;;1.27;1.17;;;5.00;99.90;;;;;;4960560;28;20059;-45
2023/01/16 13:47:29;;;;;;;1.20;1.10;;;4.90;99.90;;;;;;4960873;28;20070;-45
2023/01/16 13:50:11;;;;;;;1.00;0.90;;;4.80;99.90;;;;;;4964191;28;20471;-45
2023/01/16 13:52:42;;;;;;;1.50;1.00;;;4.70;99.90;;;;;;4963660;28;20054;-45
2023/01/16 13:55:28;;;;;;;1.10;1.10;;;4.70;99.90;;;;;;4966311;28;20074;-45
2023/01/16 13:58:07;;;;;;;1.05;1.05;;;4.60;99.90;;;;;;4969268;28;20047;-45
2023/01/16 14:00:37;;;;;;;1.20;1.17;;;4.60;99.90;;;;;;4971077;28;20051;-45
2023/01/16 14:03:26;;;;;;;1.00;1.00;;;4.50;99.90;;;;;;4971443;28;20392;-45
2023/01/16 14:06:24;;;;;;;1.05;1.02;;;4.50;99.90;;;;;;4968484;28;20393;-46
2023/01/16 14:09:04;;;;;;;1.95;1.08;;;4.40;99.90;;;;;;4944081;28;20051;-45
2023/01/16 14:11:42;;;;;;;1.20;1.15;;;4.40;99.90;;;;;;4968298;28;20071;-45
2023/01/16 14:17:07;;;;;;;1.33;1.25;;;4.30;99.90;;;;;;4923280;29;20063;-45
2023/01/16 14:19:51;;;;;;;1.25;1.15;;;4.20;99.90;;;;;;4934244;29;20044;-46
2023/01/16 14:24:58;;;;;;;3.90;1.30;;;3.60;99.90;;;;;;4924728;28;20055;-46
2023/01/16 14:27:50;;;;;;;1.80;1.60;;;3.60;99.90;;;;;;4914164;29;20112;-45
2023/01/16 14:30:25;;;;;;;1.50;1.50;;;3.70;99.90;;;;;;4917807;29;20048;-45
2023/01/16 14:32:57;;;;;;;2.40;2.15;;;3.70;99.90;;;;;;4932194;28;20051;-45
2023/01/16 14:35:40;;;;;;;2.85;1.50;;;3.80;99.90;;;;;;4931793;29;20574;-46